Porto Santo Airport Vila Baleira PT
ICAO: LPPS
IATA: PXO
Category: Medium
Scheduled Services: Yes

Elevation: 341 ft
TransAlt. 5000 ft.

Airport Communications:
GCA:123.3
TWR:118.4

LPPS Zoom In..

Runways:

(A) RW 18 length 7871 ft width 148 ft
---- / hdg 184

(B) RW 36 length 7871 ft width 148 ft
---- / hdg 4

Location; LPPS
Day. 20 / Time. 11.30 Zulu
* QNH: 1018
* Temperature: 17° c. 62.6°f.
* Wind from: 350° Speed 13 kn.
Dewpoint: 10° c.
Visibility: 10 km or more.
Clouds: Few 1500 ft.
Clouds: Broken 3000 ft.

LPPS 201130Z 35013KT 9999 FEW015 BKN030 17/10 Q1018


Wind From 350°
Speed 13 kn.

 
 
jpsmedia.com for Web Design SOUNDCLOUD worldairports.se 2018   terms of use